createdAt,value
2018-03-08T00:02:26.600Z,93928.67
2018-03-08T00:04:53.981Z,93922.78
2018-03-08T00:07:21.353Z,93922.34
2018-03-08T00:09:48.718Z,93926.77
2018-03-08T00:12:16.118Z,93914.22
2018-03-08T00:14:43.528Z,93923.22
2018-03-08T00:17:10.887Z,93916.69
2018-03-08T00:19:38.268Z,93915.44
2018-03-08T00:22:05.611Z,93908.35
2018-03-08T00:24:33.070Z,93896.05
2018-03-08T00:27:00.412Z,93911.17
2018-03-08T00:29:27.801Z,93900.30
2018-03-08T00:31:55.151Z,93915.98
2018-03-08T00:34:22.531Z,93903.89
2018-03-08T00:36:49.877Z,93911.08
2018-03-08T00:39:17.253Z,93905.03
2018-03-08T00:41:44.651Z,93900.98
2018-03-08T00:44:11.996Z,93889.16
2018-03-08T00:46:39.527Z,93896.79
2018-03-08T00:49:06.924Z,93889.33
2018-03-08T00:51:34.278Z,93889.02
2018-03-08T00:54:01.626Z,93879.35
2018-03-08T00:56:29.014Z,93878.88
2018-03-08T00:58:56.432Z,93885.90
2018-03-08T01:01:23.806Z,93881.79
2018-03-08T01:03:51.228Z,93868.59
2018-03-08T01:06:18.708Z,93858.86
2018-03-08T01:08:46.082Z,93864.87
2018-03-08T01:11:13.465Z,93867.58
2018-03-08T01:13:40.822Z,93857.03
2018-03-08T01:16:08.280Z,93854.02
2018-03-08T01:18:36.788Z,93828.94
2018-03-08T01:21:04.371Z,93850.02
2018-03-08T01:23:31.726Z,93827.24
2018-03-08T01:25:59.188Z,93846.43
2018-03-08T01:28:26.590Z,93853.39
2018-03-08T01:30:54.011Z,93836.66
2018-03-08T01:33:21.514Z,93824.25
2018-03-08T01:35:48.894Z,93833.84
2018-03-08T01:38:16.438Z,93832.97
2018-03-08T01:40:43.823Z,93836.63
2018-03-08T01:43:11.299Z,93826.07
2018-03-08T01:45:38.646Z,93826.63
2018-03-08T01:48:06.010Z,93830.27
2018-03-08T01:50:33.584Z,93824.59
2018-03-08T01:53:00.941Z,93821.50
2018-03-08T01:55:28.352Z,93817.08
2018-03-08T01:57:55.710Z,93807.14
2018-03-08T02:00:23.280Z,93802.23
2018-03-08T02:02:50.651Z,93799.06
2018-03-08T02:05:18.020Z,93804.05
2018-03-08T02:07:45.430Z,93816.08
2018-03-08T02:10:12.840Z,93807.55
2018-03-08T02:12:40.186Z,93790.02
2018-03-08T02:15:07.562Z,93796.95
2018-03-08T02:17:35.025Z,93792.28
2018-03-08T02:20:02.493Z,93789.37
2018-03-08T02:22:29.905Z,93787.41
2018-03-08T02:24:57.409Z,93781.89
2018-03-08T02:27:24.763Z,93782.89
2018-03-08T02:29:52.185Z,93786.69
2018-03-08T02:32:19.560Z,93787.69
2018-03-08T02:34:46.894Z,93774.77
2018-03-08T02:37:14.258Z,93773.91
2018-03-08T02:39:41.844Z,93773.91
2018-03-08T02:42:09.255Z,93770.54
2018-03-08T02:44:36.615Z,93784.18
2018-03-08T02:47:03.992Z,93780.87
2018-03-08T02:49:31.359Z,93790.88
2018-03-08T02:51:58.735Z,93778.03
2018-03-08T02:54:26.127Z,93791.66
2018-03-08T02:56:53.486Z,93785.27
2018-03-08T02:59:20.912Z,93789.25
2018-03-08T03:01:48.450Z,93781.20
2018-03-08T03:04:15.787Z,93780.33
2018-03-08T03:06:43.247Z,93785.94
2018-03-08T03:09:10.606Z,93779.45
2018-03-08T03:11:37.950Z,93770.32
2018-03-08T03:14:05.326Z,93768.73
2018-03-08T03:16:32.891Z,93780.00
2018-03-08T03:19:00.242Z,93744.28
2018-03-08T03:21:27.671Z,93761.02
2018-03-08T03:23:55.098Z,93766.06
2018-03-08T03:28:55.958Z,93774.30
2018-03-08T03:31:23.559Z,93773.30
2018-03-08T03:33:51.014Z,93767.20
2018-03-08T03:36:18.416Z,93764.44
2018-03-08T03:38:45.922Z,93760.05
2018-03-08T03:41:13.294Z,93759.70
2018-03-08T03:43:40.645Z,93747.27
2018-03-08T03:46:08.026Z,93749.37
2018-03-08T03:48:35.417Z,93742.47
2018-03-08T03:51:02.754Z,93735.52
2018-03-08T03:53:30.139Z,93738.97
2018-03-08T03:55:57.592Z,93715.47
2018-03-08T03:58:24.971Z,93740.22
2018-03-08T04:00:52.443Z,93732.67
2018-03-08T04:03:19.837Z,93727.69
2018-03-08T04:05:47.179Z,93724.78
2018-03-08T04:08:14.514Z,93719.42
2018-03-08T04:10:41.851Z,93719.11
2018-03-08T04:13:09.198Z,93729.23
2018-03-08T04:15:36.543Z,93722.93
2018-03-08T04:18:03.916Z,93721.48
2018-03-08T04:20:31.262Z,93711.43
2018-03-08T04:22:58.611Z,93712.09
2018-03-08T04:25:25.991Z,93710.45
2018-03-08T04:27:53.335Z,93701.00
2018-03-08T04:30:20.852Z,93713.45
2018-03-08T04:32:48.200Z,93701.71
2018-03-08T04:35:15.539Z,93715.61
2018-03-08T04:37:42.926Z,93723.09
2018-03-08T04:40:10.343Z,93723.62
2018-03-08T04:42:37.721Z,93713.44
2018-03-08T04:45:05.143Z,93710.59
2018-03-08T04:47:32.578Z,93714.84
2018-03-08T04:50:00.134Z,93720.33
2018-03-08T04:52:27.586Z,93704.79
2018-03-08T04:54:54.926Z,93717.54
2018-03-08T04:57:22.305Z,93719.87
2018-03-08T04:59:49.711Z,93724.14
2018-03-08T05:02:17.127Z,93713.57
2018-03-08T05:05:03.015Z,93710.55
2018-03-08T05:07:30.443Z,93723.40
2018-03-08T05:09:57.782Z,93706.98
2018-03-08T05:12:25.118Z,93729.48
2018-03-08T05:14:52.523Z,93724.81
2018-03-08T05:17:19.915Z,93731.77
2018-03-08T05:19:47.289Z,93727.25
2018-03-08T05:22:14.791Z,93738.06
2018-03-08T05:24:42.146Z,93737.30
2018-03-08T05:27:09.671Z,93719.53
2018-03-08T05:29:37.822Z,93737.78
2018-03-08T05:32:05.199Z,93741.63
2018-03-08T05:34:32.598Z,93744.16
2018-03-08T05:36:59.989Z,93753.38
2018-03-08T05:42:28.600Z,93751.18
2018-03-08T05:44:55.994Z,93747.36
2018-03-08T05:47:23.881Z,93758.13
2018-03-08T05:49:51.268Z,93751.05
2018-03-08T05:52:18.707Z,93761.45
2018-03-08T05:54:46.103Z,93753.27
2018-03-08T05:57:13.459Z,93744.09
2018-03-08T05:59:40.812Z,93752.05
2018-03-08T06:02:08.200Z,93755.61
2018-03-08T06:04:35.632Z,93751.34
2018-03-08T06:07:02.975Z,93755.67
2018-03-08T06:09:30.367Z,93744.10
2018-03-08T06:11:57.731Z,93747.44
2018-03-08T06:14:25.280Z,93750.36
2018-03-08T06:16:52.718Z,93744.45
2018-03-08T06:19:20.187Z,93749.94
2018-03-08T06:21:47.537Z,93745.72
2018-03-08T06:24:14.899Z,93740.23
2018-03-08T06:26:42.334Z,93745.27
2018-03-08T06:29:09.701Z,93751.03
2018-03-08T06:31:37.069Z,93741.88
2018-03-08T06:34:04.487Z,93743.47
2018-03-08T06:36:31.884Z,93738.31
2018-03-08T06:38:59.308Z,93739.83
2018-03-08T06:41:26.957Z,93715.44
2018-03-08T06:43:54.507Z,93724.22
2018-03-08T06:46:21.928Z,93718.53
2018-03-08T06:48:49.485Z,93708.04
2018-03-08T06:51:16.943Z,93709.14
2018-03-08T06:53:44.325Z,93718.06
2018-03-08T06:56:11.731Z,93729.15
2018-03-08T06:58:39.139Z,93721.49
2018-03-08T07:01:06.512Z,93731.25
2018-03-08T07:03:33.908Z,93720.44
2018-03-08T07:06:01.330Z,93723.96
2018-03-08T07:08:29.108Z,93723.96
2018-03-08T07:10:56.598Z,93727.66
2018-03-08T07:13:24.309Z,93717.61
2018-03-08T07:15:51.855Z,93708.81
2018-03-08T07:18:19.386Z,93736.92
2018-03-08T07:20:46.791Z,93734.47
2018-03-08T07:23:14.168Z,93734.61
2018-03-08T07:25:41.550Z,93743.41
2018-03-08T07:28:08.946Z,93732.28
2018-03-08T07:30:36.336Z,93729.88
2018-03-08T07:33:03.738Z,93721.90
2018-03-08T07:35:38.640Z,93729.70
2018-03-08T07:38:05.998Z,93727.17
2018-03-08T07:40:33.478Z,93712.93
2018-03-08T07:43:00.878Z,93736.19
2018-03-08T07:45:28.335Z,93724.47
2018-03-08T07:47:55.727Z,93733.69
2018-03-08T07:50:23.124Z,93720.64
2018-03-08T07:55:42.784Z,93724.53
2018-03-08T07:58:10.183Z,93732.09
2018-03-08T08:00:37.630Z,93716.27
2018-03-08T08:03:05.031Z,93721.78
2018-03-08T08:05:32.464Z,93715.80
2018-03-08T08:08:00.267Z,93711.05
2018-03-08T08:10:27.698Z,93723.24
2018-03-08T08:12:55.346Z,93720.44
2018-03-08T08:15:22.813Z,93733.75
2018-03-08T08:17:50.168Z,93724.23
2018-03-08T08:20:17.635Z,93737.22
2018-03-08T08:22:45.057Z,93737.12
2018-03-08T08:25:12.563Z,93717.28
2018-03-08T08:27:40.028Z,93724.06
2018-03-08T08:30:07.448Z,93738.33
2018-03-08T08:32:35.084Z,93745.17
2018-03-08T08:35:02.565Z,93744.98
2018-03-08T08:37:30.040Z,93737.40
2018-03-08T08:39:57.415Z,93742.40
2018-03-08T08:42:24.856Z,93749.81
2018-03-08T08:44:52.318Z,93744.50
2018-03-08T08:47:19.687Z,93746.05
2018-03-08T08:49:47.129Z,93738.69
2018-03-08T08:52:14.526Z,93744.44
2018-03-08T08:54:42.037Z,93742.58
2018-03-08T08:57:09.589Z,93734.03
2018-03-08T08:59:37.112Z,93743.34
2018-03-08T09:02:05.606Z,93733.30
2018-03-08T09:04:33.510Z,93743.03
2018-03-08T09:07:00.935Z,93749.70
2018-03-08T09:09:28.378Z,93746.27
2018-03-08T09:11:55.873Z,93739.77
2018-03-08T09:14:23.662Z,93748.16
2018-03-08T09:16:51.310Z,93733.70
2018-03-08T09:19:18.986Z,93756.20
2018-03-08T09:21:46.412Z,93734.49
2018-03-08T09:24:14.139Z,93759.50
2018-03-08T09:26:41.637Z,93746.78
2018-03-08T09:29:09.030Z,93747.09
2018-03-08T09:31:36.474Z,93758.09
2018-03-08T09:34:04.169Z,93756.53
2018-03-08T09:36:31.584Z,93765.36
2018-03-08T09:38:59.007Z,93758.04
2018-03-08T09:41:26.411Z,93758.26
2018-03-08T09:43:54.745Z,93757.74
2018-03-08T09:46:22.180Z,93770.48
2018-03-08T09:48:49.751Z,93769.86
2018-03-08T09:51:17.289Z,93762.74
2018-03-08T09:53:45.061Z,93777.62
2018-03-08T09:56:12.469Z,93778.81
2018-03-08T09:58:40.183Z,93774.16
2018-03-08T10:01:07.833Z,93756.88
2018-03-08T10:03:38.085Z,93778.45
2018-03-08T10:06:05.601Z,93781.45
2018-03-08T10:08:33.216Z,93788.00
2018-03-08T10:11:00.793Z,93773.63
2018-03-08T10:13:28.373Z,93778.27
2018-03-08T10:15:55.778Z,93782.14
2018-03-08T10:18:23.440Z,93770.07
2018-03-08T10:20:50.906Z,93779.98
2018-03-08T10:23:18.365Z,93780.98
2018-03-08T10:25:45.762Z,93781.59
2018-03-08T10:28:13.355Z,93783.87
2018-03-08T10:30:40.831Z,93782.78
2018-03-08T10:33:08.237Z,93775.47
2018-03-08T10:35:35.803Z,93773.77
2018-03-08T10:38:03.238Z,93786.18
2018-03-08T10:42:58.474Z,93793.64
2018-03-08T10:45:25.974Z,93791.28
2018-03-08T10:47:53.362Z,93782.80
2018-03-08T10:50:20.806Z,93782.41
2018-03-08T10:52:48.250Z,93789.02
2018-03-08T10:55:15.688Z,93799.05
2018-03-08T10:57:43.181Z,93794.27
2018-03-08T11:00:10.654Z,93794.27
2018-03-08T11:02:38.068Z,93785.20
2018-03-08T11:05:05.471Z,93803.66
2018-03-08T11:07:34.271Z,93807.07
2018-03-08T11:10:01.784Z,93793.07
2018-03-08T11:15:02.573Z,93791.06
2018-03-08T11:17:30.133Z,93801.00
2018-03-08T11:19:57.673Z,93816.74
2018-03-08T11:22:26.698Z,93820.87
2018-03-08T11:24:54.124Z,93830.70
2018-03-08T11:27:21.563Z,93834.76
2018-03-08T11:29:49.268Z,93825.30
2018-03-08T11:32:16.704Z,93824.16
2018-03-08T11:34:45.488Z,93839.77
2018-03-08T11:37:13.027Z,93845.17
2018-03-08T11:39:41.332Z,93837.58
2018-03-08T11:42:09.277Z,93843.09
2018-03-08T11:44:36.407Z,93848.80
2018-03-08T11:47:03.768Z,93845.82
2018-03-08T11:49:31.776Z,93860.44
2018-03-08T11:51:59.260Z,93858.33
2018-03-08T11:54:27.867Z,93855.34
2018-03-08T11:56:55.612Z,93865.84
2018-03-08T11:59:23.623Z,93837.16
2018-03-08T12:01:51.048Z,93871.02
2018-03-08T12:04:18.441Z,93863.59
2018-03-08T12:06:46.027Z,93851.77
2018-03-08T12:09:13.472Z,93864.56
2018-03-08T12:11:40.828Z,93873.69
2018-03-08T12:14:08.352Z,93867.77
2018-03-08T12:16:35.755Z,93875.87
2018-03-08T12:19:04.254Z,93874.40
2018-03-08T12:21:31.644Z,93870.94
2018-03-08T12:23:59.101Z,93865.09
2018-03-08T12:26:26.511Z,93873.11
2018-03-08T12:28:53.994Z,93869.48
2018-03-08T12:31:21.630Z,93881.67
2018-03-08T12:33:49.146Z,93873.59
2018-03-08T12:36:16.642Z,93874.31
2018-03-08T12:38:44.024Z,93868.73
2018-03-08T12:41:11.440Z,93861.95
2018-03-08T12:43:38.839Z,93881.19
2018-03-08T12:46:06.601Z,93877.55
2018-03-08T12:48:34.264Z,93860.41
2018-03-08T12:51:01.716Z,93883.55
2018-03-08T12:53:29.201Z,93866.09
2018-03-08T12:55:56.690Z,93879.81
2018-03-08T12:58:25.240Z,93886.84
2018-03-08T13:00:52.659Z,93899.60
2018-03-08T13:03:20.189Z,93888.91
2018-03-08T13:05:49.125Z,93895.64
2018-03-08T13:08:16.529Z,93915.59
2018-03-08T13:10:43.950Z,93917.84
2018-03-08T13:13:11.433Z,93915.12
2018-03-08T13:15:38.881Z,93927.14
2018-03-08T13:18:06.323Z,93926.44
2018-03-08T13:20:34.093Z,93919.23
2018-03-08T13:23:01.482Z,93938.67
2018-03-08T13:25:29.005Z,93933.91
2018-03-08T13:27:57.590Z,93938.05
2018-03-08T13:30:25.009Z,93954.16
2018-03-08T13:32:52.950Z,93963.36
2018-03-08T13:35:21.803Z,93960.84
2018-03-08T13:37:49.268Z,93961.81
2018-03-08T13:40:16.892Z,93962.44
2018-03-08T13:42:44.385Z,93961.94
2018-03-08T13:45:11.924Z,93970.46
2018-03-08T13:47:39.552Z,93945.14
2018-03-08T13:50:07.763Z,93965.43
2018-03-08T13:52:35.567Z,93975.22
2018-03-08T13:55:03.002Z,93963.34
2018-03-08T13:57:30.502Z,93965.73
2018-03-08T14:00:01.726Z,93987.56
2018-03-08T14:02:29.126Z,93994.75
2018-03-08T14:04:56.588Z,94000.55
2018-03-08T14:07:24.089Z,94015.50
2018-03-08T14:09:51.505Z,94026.34
2018-03-08T14:12:19.072Z,94030.16
2018-03-08T14:14:46.480Z,94035.82
2018-03-08T14:17:13.906Z,94035.30
2018-03-08T14:19:41.306Z,94037.02
2018-03-08T14:22:08.690Z,94039.61
2018-03-08T14:24:36.108Z,94035.05
2018-03-08T14:27:03.541Z,94040.75
2018-03-08T14:29:30.889Z,94048.17
2018-03-08T14:31:58.352Z,94048.70
2018-03-08T14:34:25.900Z,94066.32
2018-03-08T14:36:53.432Z,94068.84
2018-03-08T14:39:21.063Z,94063.19
2018-03-08T14:41:48.565Z,94076.20
2018-03-08T14:44:16.016Z,94075.91
2018-03-08T14:46:43.514Z,94074.42
2018-03-08T14:49:10.880Z,94081.35
2018-03-08T14:51:38.230Z,94065.66
2018-03-08T14:54:05.738Z,94070.94
2018-03-08T14:56:33.191Z,94088.66
2018-03-08T14:59:00.670Z,94082.58
2018-03-08T15:01:28.106Z,94091.38
2018-03-08T15:03:55.540Z,94095.22
2018-03-08T15:06:22.998Z,94100.17
2018-03-08T15:08:50.490Z,94097.71
2018-03-08T15:11:17.926Z,94103.63
2018-03-08T15:13:45.289Z,94123.54
2018-03-08T15:16:12.697Z,94115.28
2018-03-08T15:18:40.134Z,94133.27
2018-03-08T15:21:07.559Z,94138.03
2018-03-08T15:23:34.958Z,94137.16
2018-03-08T15:26:02.312Z,94147.39
2018-03-08T15:28:29.702Z,94161.06
2018-03-08T15:30:57.052Z,94161.03
2018-03-08T15:33:24.404Z,94158.48
2018-03-08T15:35:51.823Z,94170.78
2018-03-08T15:38:19.305Z,94185.51
2018-03-08T15:40:46.675Z,94197.38
2018-03-08T15:43:14.168Z,94194.72
2018-03-08T15:45:41.598Z,94208.52
2018-03-08T15:48:08.993Z,94199.23
2018-03-08T15:50:36.358Z,94211.81
2018-03-08T15:53:03.740Z,94228.66
2018-03-08T15:55:31.123Z,94233.95
2018-03-08T15:57:58.528Z,94233.64
2018-03-08T16:00:26.037Z,94233.42
2018-03-08T16:02:53.498Z,94241.92
2018-03-08T16:05:20.905Z,94255.31
2018-03-08T16:07:48.313Z,94262.95
2018-03-08T16:10:15.674Z,94262.52
2018-03-08T16:12:43.090Z,94267.30
2018-03-08T16:15:10.466Z,94273.99
2018-03-08T16:17:37.822Z,94283.92
2018-03-08T16:20:05.181Z,94272.48
2018-03-08T16:22:32.602Z,94284.58
2018-03-08T16:24:59.990Z,94298.72
2018-03-08T16:27:27.416Z,94293.03
2018-03-08T16:29:54.769Z,94305.59
2018-03-08T16:32:22.124Z,94303.60
2018-03-08T16:34:49.486Z,94310.58
2018-03-08T16:37:16.827Z,94312.53
2018-03-08T16:39:44.187Z,94321.13
2018-03-08T16:42:11.643Z,94323.73
2018-03-08T16:44:39.061Z,94341.14
2018-03-08T16:47:06.403Z,94345.34
2018-03-08T16:49:33.824Z,94354.20
2018-03-08T16:52:01.170Z,94357.86
2018-03-08T16:54:28.564Z,94361.14
2018-03-08T16:56:55.905Z,94365.17
2018-03-08T16:59:23.276Z,94375.38
2018-03-08T17:01:50.641Z,94383.41
2018-03-08T17:04:17.991Z,94386.19
2018-03-08T17:06:45.423Z,94403.31
2018-03-08T17:09:12.815Z,94397.37
2018-03-08T17:11:40.175Z,94414.69
2018-03-08T17:14:07.533Z,94418.91
2018-03-08T17:16:34.896Z,94421.14
2018-03-08T17:19:02.333Z,94431.50
2018-03-08T17:21:29.693Z,94435.50
2018-03-08T17:23:57.040Z,94448.91
2018-03-08T17:26:24.432Z,94457.66
2018-03-08T17:28:51.946Z,94452.71
2018-03-08T17:31:19.304Z,94450.00
2018-03-08T17:33:46.670Z,94467.25
2018-03-08T17:36:14.016Z,94474.86
2018-03-08T17:38:41.360Z,94482.34
2018-03-08T17:41:08.757Z,94486.06
2018-03-08T17:43:36.108Z,94501.55
2018-03-08T17:46:03.507Z,94501.70
2018-03-08T17:48:30.855Z,94516.08
2018-03-08T17:50:58.231Z,94509.77
2018-03-08T17:53:25.616Z,94516.08
2018-03-08T17:55:53.013Z,94524.09
2018-03-08T17:58:20.375Z,94541.08
2018-03-08T18:00:47.731Z,94526.08
2018-03-08T18:03:15.140Z,94537.41
2018-03-08T18:05:42.531Z,94541.75
2018-03-08T18:08:09.931Z,94532.94
2018-03-08T18:10:37.316Z,94541.60
2018-03-08T18:13:04.698Z,94542.08
2018-03-08T18:15:32.109Z,94548.22
2018-03-08T18:17:59.454Z,94544.77
2018-03-08T18:20:26.833Z,94553.15
2018-03-08T18:22:54.218Z,94559.05
2018-03-08T18:25:21.564Z,94553.34
2018-03-08T18:27:48.983Z,94568.20
2018-03-08T18:30:16.347Z,94573.98
2018-03-08T18:32:43.695Z,94569.70
2018-03-08T18:35:11.027Z,94579.55
2018-03-08T18:37:38.371Z,94572.72
2018-03-08T18:40:05.731Z,94586.38
2018-03-08T18:42:33.084Z,94588.29
2018-03-08T18:45:00.451Z,94575.99
2018-03-08T18:47:27.846Z,94584.48
2018-03-08T18:49:55.228Z,94598.92
2018-03-08T18:52:22.602Z,94594.05
2018-03-08T18:54:49.975Z,94595.39
2018-03-08T18:57:17.311Z,94603.07
2018-03-08T18:59:44.709Z,94600.27
2018-03-08T19:02:12.047Z,94608.97
2018-03-08T19:04:39.444Z,94611.02
2018-03-08T19:07:06.794Z,94612.84
2018-03-08T19:09:34.168Z,94610.94
2018-03-08T19:12:01.510Z,94618.20
2018-03-08T19:14:28.866Z,94617.17
2018-03-08T19:16:56.215Z,94617.03
2018-03-08T19:19:23.558Z,94617.62
2018-03-08T19:21:50.897Z,94618.91
2018-03-08T19:24:18.256Z,94624.94
2018-03-08T19:26:45.685Z,94633.55
2018-03-08T19:29:13.034Z,94635.34
2018-03-08T19:31:40.526Z,94636.40
2018-03-08T19:34:07.875Z,94637.13
2018-03-08T19:36:35.224Z,94652.69
2018-03-08T19:39:02.646Z,94655.83
2018-03-08T19:41:29.991Z,94653.09
2018-03-08T19:43:57.326Z,94663.94
2018-03-08T19:46:24.671Z,94667.80
2018-03-08T19:48:52.014Z,94661.88
2018-03-08T19:51:19.366Z,94669.36
2018-03-08T19:53:46.710Z,94676.41
2018-03-08T19:56:14.091Z,94685.70
2018-03-08T19:58:41.432Z,94683.39
2018-03-08T20:01:08.771Z,94673.39
2018-03-08T20:03:36.118Z,94694.05
2018-03-08T20:06:03.609Z,94678.56
2018-03-08T20:08:30.970Z,94695.81
2018-03-08T20:10:58.341Z,94711.55
2018-03-08T20:13:25.691Z,94715.83
2018-03-08T20:15:53.041Z,94720.56
2018-03-08T20:18:20.471Z,94705.75
2018-03-08T20:20:47.851Z,94719.31
2018-03-08T20:23:15.286Z,94723.09
2018-03-08T20:25:42.633Z,94732.17
2018-03-08T20:28:09.970Z,94732.89
2018-03-08T20:30:37.341Z,94731.39
2018-03-08T20:33:04.731Z,94732.63
2018-03-08T20:35:32.116Z,94731.33
2018-03-08T20:37:59.471Z,94727.31
2018-03-08T20:40:26.844Z,94741.72
2018-03-08T20:42:54.271Z,94736.41
2018-03-08T20:45:21.621Z,94736.09
2018-03-08T20:47:48.989Z,94742.94
2018-03-08T20:50:16.318Z,94738.61
2018-03-08T20:52:43.718Z,94743.83
2018-03-08T20:55:11.064Z,94745.24
2018-03-08T20:57:38.403Z,94752.34
2018-03-08T21:00:05.816Z,94754.50
2018-03-08T21:02:33.180Z,94768.34
2018-03-08T21:05:00.538Z,94768.45
2018-03-08T21:07:27.898Z,94769.70
2018-03-08T21:09:55.308Z,94769.57
2018-03-08T21:12:22.681Z,94763.22
2018-03-08T21:14:50.083Z,94765.63
2018-03-08T21:17:17.436Z,94778.00
2018-03-08T21:19:44.813Z,94773.18
2018-03-08T21:22:12.205Z,94778.89
2018-03-08T21:24:39.548Z,94789.61
2018-03-08T21:27:06.893Z,94781.55
2018-03-08T21:29:34.300Z,94787.91
2018-03-08T21:32:01.638Z,94785.97
2018-03-08T21:34:29.013Z,94791.70
2018-03-08T21:36:56.359Z,94783.95
2018-03-08T21:39:23.756Z,94785.19
2018-03-08T21:41:51.114Z,94785.97
2018-03-08T21:44:18.495Z,94784.14
2018-03-08T21:46:45.846Z,94781.73
2018-03-08T21:49:13.225Z,94760.34
2018-03-08T21:51:40.675Z,94765.84
2018-03-08T21:54:08.034Z,94771.34
2018-03-08T21:56:35.422Z,94771.45
2018-03-08T21:59:02.780Z,94770.27
2018-03-08T22:01:30.197Z,94776.65
2018-03-08T22:03:57.549Z,94777.03
2018-03-08T22:06:24.951Z,94779.92
2018-03-08T22:08:52.296Z,94775.80
2018-03-08T22:11:19.634Z,94780.02
2018-03-08T22:13:47.022Z,94780.22
2018-03-08T22:16:14.364Z,94790.69
2018-03-08T22:18:41.751Z,94790.23
2018-03-08T22:21:09.102Z,94792.52
2018-03-08T22:23:36.443Z,94786.09
2018-03-08T22:26:03.842Z,94799.77
2018-03-08T22:28:31.188Z,94796.13
2018-03-08T22:30:58.532Z,94793.51
2018-03-08T22:33:25.882Z,94799.20
2018-03-08T22:35:53.232Z,94798.44
2018-03-08T22:38:20.635Z,94797.57
2018-03-08T22:40:47.997Z,94802.41
2018-03-08T22:43:15.487Z,94812.81
2018-03-08T22:45:42.831Z,94818.30
2018-03-08T22:48:10.353Z,94807.45
2018-03-08T22:50:37.694Z,94809.52
2018-03-08T22:53:05.068Z,94814.10
2018-03-08T22:55:32.435Z,94805.34
2018-03-08T22:57:59.871Z,94818.67
2018-03-08T23:00:27.219Z,94811.52
2018-03-08T23:02:54.568Z,94811.47
2018-03-08T23:05:21.964Z,94821.16
2018-03-08T23:07:49.310Z,94818.27
2018-03-08T23:10:16.690Z,94816.72
2018-03-08T23:12:44.122Z,94819.76
2018-03-08T23:15:11.514Z,94818.88
2018-03-08T23:17:38.910Z,94818.83
2018-03-08T23:20:06.290Z,94825.80
2018-03-08T23:22:33.691Z,94829.66
2018-03-08T23:25:01.039Z,94826.36
2018-03-08T23:27:28.433Z,94834.39
2018-03-08T23:29:55.774Z,94828.66
2018-03-08T23:32:23.128Z,94831.41
2018-03-08T23:34:50.475Z,94823.88
2018-03-08T23:37:17.824Z,94819.99
2018-03-08T23:39:45.158Z,94828.66
2018-03-08T23:42:12.538Z,94837.02
2018-03-08T23:44:39.887Z,94827.95
2018-03-08T23:47:07.235Z,94838.45
2018-03-08T23:49:34.621Z,94842.72
2018-03-08T23:52:02.054Z,94838.92
2018-03-08T23:54:29.433Z,94841.44
2018-03-08T23:56:56.781Z,94834.84
2018-03-08T23:59:25.027Z,94839.97
